Prattville, Michigan
Current Conditions -  °F | °C
As of 9:34 PM on Wednesday 22 Oct 2014 (Local Time) from KJYM Reporting Station
Clear Clear  
Wind Chill: 34°   Ceiling: Unl
Heat Index: 34°   Visibility: 7mi
Dew Point: 34°   Wind: 0mph
Humidity: 100%   Direction: NA
Pressure: 30.28"   Gusts: NA
Location:  41.8341°N, 84.4576°W
Report Text: KJYM 230134Z AUTO 00000KT 7SM CLR 01/01 A3028 RMK AO2 T00090009
Loading
Personal Weather Stations






























Interactive Weather Map
Tropical Storm Tracking
New forecast layout! Learn more

10-Day Weather Forecast

Advertisements
Track Severe Weather on mobile